Time;durP1;ratioP1;P1;durP2;ratioP2;P2;SDS_P1;SDS_P2;PMS_P1;PMS_P2;Temp;Humidity;BMP_temperature;BMP_pressure;BME280_temperature;BME280_humidity;BME280_pressure;Samples;Min_cycle;Max_cycle;Signal;HPM_P1;HPM_P2
2022/05/20 00:01:14;;;;;;;53.43;36.70;;;;;;;15.23;100.00;98482.56;7390763;19;20389;-57
2022/05/20 00:03:45;;;;;;;53.43;38.17;;;;;;;15.13;100.00;98487.00;7383752;19;20380;-55
2022/05/20 00:06:14;;;;;;;55.23;38.87;;;;;;;15.11;100.00;98486.16;7393990;19;20490;-56
2022/05/20 00:08:44;;;;;;;57.63;38.60;;;;;;;15.13;100.00;98528.56;7363351;19;20419;-58
2022/05/20 00:11:16;;;;;;;61.20;38.17;;;;;;;15.03;100.00;98506.16;7390451;19;20931;-52
2022/05/20 00:13:45;;;;;;;49.40;37.90;;;;;;;15.05;100.00;98507.88;7385757;19;20398;-57
2022/05/20 00:16:15;;;;;;;64.60;41.43;;;;;;;14.96;100.00;98506.25;7390704;19;20425;-59
2022/05/20 00:18:46;;;;;;;56.07;39.37;;;;;;;15.03;100.00;98490.59;7357039;19;20401;-56
2022/05/20 00:21:16;;;;;;;61.00;43.60;;;;;;;15.04;100.00;98500.09;7391175;19;20959;-56
2022/05/20 00:23:45;;;;;;;63.00;40.70;;;;;;;15.01;100.00;98505.34;7383601;19;20415;-59
2022/05/20 00:26:17;;;;;;;64.90;43.20;;;;;;;14.91;100.00;98510.63;7390902;19;20420;-58
2022/05/20 00:28:48;;;;;;;53.57;40.83;;;;;;;14.89;100.00;98515.00;7356800;19;20399;-56
2022/05/20 00:31:18;;;;;;;69.10;45.50;;;;;;;14.77;100.00;98525.50;7390788;19;20477;-56
2022/05/20 00:33:48;;;;;;;59.37;42.00;;;;;;;14.76;100.00;98529.00;7384035;19;20501;-57
2022/05/20 00:36:17;;;;;;;57.10;42.57;;;;;;;14.76;100.00;98540.22;7390763;19;20417;-58
2022/05/20 00:38:49;;;;;;;60.60;42.73;;;;;;;14.76;100.00;98539.38;7359987;19;20389;-52
2022/05/20 00:41:21;;;;;;;66.80;45.73;;;;;;;14.81;100.00;98527.19;7397898;19;20389;-55
2022/05/20 00:43:51;;;;;;;71.80;45.47;;;;;;;14.82;100.00;98521.97;7391172;19;20414;-56
2022/05/20 00:46:22;;;;;;;62.17;43.43;;;;;;;14.76;100.00;98526.41;7397569;19;20954;-59
2022/05/20 00:48:56;;;;;;;63.47;43.90;;;;;;;14.75;100.00;98535.91;7366793;19;20405;-59
2022/05/20 00:51:30;;;;;;;64.53;45.80;;;;;;;14.79;100.00;98534.13;7397207;19;20388;-59
2022/05/20 00:54:03;;;;;;;59.13;41.23;;;;;;;14.70;100.00;98533.34;7392542;19;20415;-57
2022/05/20 00:56:39;;;;;;;66.13;42.10;;;;;;;14.62;100.00;98549.84;7400245;19;20447;-59
2022/05/20 00:59:11;;;;;;;74.37;44.07;;;;;;;14.52;100.00;98562.06;7390142;19;20411;-53
2022/05/20 01:01:41;;;;;;;66.07;43.23;;;;;;;14.34;100.00;98553.56;7398323;19;20383;-53
2022/05/20 01:04:10;;;;;;;67.37;40.20;;;;;;;14.27;100.00;98577.84;7390052;19;20922;-56
2022/05/20 01:06:40;;;;;;;61.00;40.10;;;;;;;14.16;100.00;98630.63;7396096;19;20407;-54
2022/05/20 01:09:09;;;;;;;61.70;38.30;;;;;;;14.04;100.00;98641.97;7368456;19;20419;-56
2022/05/20 01:11:42;;;;;;;60.50;37.37;;;;;;;13.97;100.00;98653.25;7397639;19;20399;-57
2022/05/20 01:14:12;;;;;;;49.53;30.97;;;;;;;13.82;100.00;98706.00;7389738;19;20487;-56
2022/05/20 01:16:41;;;;;;;69.50;39.93;;;;;;;13.80;100.00;98718.13;7396049;19;20425;-56
2022/05/20 01:19:19;;;;;;;61.23;41.13;;;;;;;13.85;100.00;98773.38;7362707;19;20387;-58
2022/05/20 01:21:48;;;;;;;70.27;42.83;;;;;;;13.75;100.00;98777.72;7396829;19;20390;-58
2022/05/20 01:24:20;;;;;;;62.87;37.90;;;;;;;13.59;100.00;98787.28;7390533;19;20422;-57
2022/05/20 01:26:50;;;;;;;67.27;40.23;;;;;;;13.52;100.00;98805.44;7396081;19;20731;-54
2022/05/20 01:29:19;;;;;;;59.73;38.07;;;;;;;13.29;100.00;98817.53;7362094;19;20426;-56
2022/05/20 01:31:49;;;;;;;59.20;37.73;;;;;;;13.15;100.00;98837.34;7392433;19;20415;-57
2022/05/20 01:34:20;;;;;;;67.77;38.60;;;;;;;13.05;100.00;98847.72;7390792;19;20406;-55
2022/05/20 01:36:49;;;;;;;75.93;40.13;;;;;;;12.96;100.00;98848.56;7395585;19;20419;-55
2022/05/20 01:39:22;;;;;;;67.20;40.30;;;;;;;12.95;100.00;98889.97;7387504;19;20410;-56
2022/05/20 01:41:55;;;;;;;63.73;39.53;;;;;;;12.87;100.00;98892.53;7396999;19;20934;-53
2022/05/20 01:44:31;;;;;;;58.50;36.20;;;;;;;12.78;100.00;98911.47;7390421;19;20432;-55
2022/05/20 01:47:07;;;;;;;66.87;39.27;;;;;;;12.77;100.00;98919.25;7395140;19;20411;-60
2022/05/20 01:49:40;;;;;;;77.37;44.23;;;;;;;12.69;100.00;98947.69;7353013;19;20398;-56
2022/05/20 01:52:23;;;;;;;73.50;42.07;;;;;;;12.72;100.00;98955.44;7396213;19;20390;-61
2022/05/20 01:55:02;;;;;;;80.90;41.87;;;;;;;12.56;100.00;98973.50;7388065;19;20436;-56
2022/05/20 01:57:35;;;;;;;74.93;40.70;;;;;;;12.58;100.00;98965.75;7396631;19;20390;-53
2022/05/20 02:00:09;;;;;;;75.47;41.47;;;;;;;12.55;100.00;98969.19;7360519;19;20518;-56
2022/05/20 02:02:43;;;;;;;77.57;43.33;;;;;;;12.56;100.00;98962.25;7395421;19;20388;-57
2022/05/20 02:05:18;;;;;;;86.87;44.57;;;;;;;12.52;100.00;98965.72;7388780;19;20421;-59
2022/05/20 02:07:50;;;;;;;75.67;39.70;;;;;;;12.42;100.00;98970.81;7395873;19;20487;-59
2022/05/20 02:10:26;;;;;;;68.80;37.70;;;;;;;12.31;100.00;99010.41;7367594;19;20427;-61
2022/05/20 02:12:59;;;;;;;57.00;33.57;;;;;;;12.33;100.00;99006.09;7400878;19;20398;-57
2022/05/20 02:15:33;;;;;;;58.47;34.00;;;;;;;12.29;100.00;98995.75;7378695;19;20438;-58
2022/05/20 02:18:05;;;;;;;49.67;30.93;;;;;;;12.24;100.00;99012.06;7395954;19;20398;-58
2022/05/20 02:20:39;;;;;;;50.87;27.17;;;;;;;12.15;100.00;98989.59;7359719;19;20466;-58
2022/05/20 02:23:11;;;;;;;41.67;26.47;;;;;;;12.16;100.00;98999.13;7395437;19;20398;-57
2022/05/20 02:25:48;;;;;;;36.10;21.30;;;;;;;12.01;100.00;98992.94;7387879;19;20415;-61
2022/05/20 02:28:21;;;;;;;37.90;22.33;;;;;;;12.00;100.00;99005.88;7396092;19;20723;-59
2022/05/20 02:30:50;;;;;;;36.13;23.20;;;;;;;11.91;100.00;98998.91;7382765;19;20769;-62
2022/05/20 02:33:22;;;;;;;40.27;24.83;;;;;;;11.90;100.00;99033.34;7395627;19;20791;-62
2022/05/20 02:35:52;;;;;;;38.30;24.60;;;;;;;11.90;100.00;99033.34;7386130;19;20800;-58
2022/05/20 02:38:24;;;;;;;37.87;22.70;;;;;;;11.85;100.00;99040.19;7395613;19;20380;-57
2022/05/20 02:40:57;;;;;;;36.20;19.20;;;;;;;11.72;100.00;99040.06;7359287;19;20399;-58
2022/05/20 02:43:26;;;;;;;27.80;18.47;;;;;;;11.61;100.00;99047.72;7394969;19;20402;-56
2022/05/20 02:45:56;;;;;;;32.53;20.60;;;;;;;11.58;100.00;99047.69;7392964;19;20403;-55
2022/05/20 02:48:26;;;;;;;37.33;21.63;;;;;;;11.61;100.00;99090.75;7395018;19;20738;-57
2022/05/20 02:50:55;;;;;;;31.17;21.70;;;;;;;11.52;100.00;99088.94;7345567;19;20408;-59
2022/05/20 02:53:25;;;;;;;30.80;20.40;;;;;;;11.51;100.00;99073.41;7395029;19;20396;-59
2022/05/20 02:55:57;;;;;;;32.20;20.47;;;;;;;11.45;100.00;99072.50;7384520;19;20432;-55
2022/05/20 03:06:46;;;;;;;31.10;19.77;;;;;;;11.39;100.00;99074.16;7390257;19;20425;-59
2022/05/20 03:09:17;;;;;;;22.73;16.53;;;;;;;11.34;100.00;99076.69;7366806;19;20420;-61
2022/05/20 03:11:50;;;;;;;27.33;18.20;;;;;;;11.40;100.00;99087.09;7394116;19;20392;-59
2022/05/20 03:14:21;;;;;;;27.27;16.80;;;;;;;11.37;100.00;99104.25;7387129;19;20426;-58
2022/05/20 03:16:51;;;;;;;25.63;16.10;;;;;;;11.40;100.00;99086.22;7392683;19;20451;-58
2022/05/20 03:19:22;;;;;;;27.77;16.40;;;;;;;11.33;100.00;99078.38;7360071;19;20733;-60
2022/05/20 03:21:51;;;;;;;23.20;15.70;;;;;;;11.32;100.00;99076.66;7393058;19;20465;-56
2022/05/20 03:24:21;;;;;;;25.77;14.00;;;;;;;11.28;100.00;99074.88;7386449;19;20757;-59
2022/05/20 03:26:53;;;;;;;22.23;14.97;;;;;;;11.31;100.00;99084.38;7392581;19;20407;-58
2022/05/20 03:29:23;;;;;;;22.43;14.27;;;;;;;11.32;100.00;99084.41;7386214;19;20443;-59
2022/05/20 03:31:53;;;;;;;25.97;15.47;;;;;;;11.33;100.00;99082.69;7393510;19;20762;-60
2022/05/20 03:34:22;;;;;;;22.40;14.77;;;;;;;11.34;100.00;99087.03;7386960;19;20807;-57
2022/05/20 03:36:52;;;;;;;24.50;15.37;;;;;;;11.36;100.00;99077.56;7392235;19;20935;-59
2022/05/20 03:39:23;;;;;;;22.67;15.57;;;;;;;11.44;100.00;99094.00;7357529;19;20420;-60
2022/05/20 03:41:55;;;;;;;20.27;14.33;;;;;;;11.42;100.00;99082.81;7393351;19;20385;-60
2022/05/20 03:44:25;;;;;;;20.37;14.10;;;;;;;11.41;100.00;99080.19;7385860;19;20417;-59
2022/05/20 03:46:56;;;;;;;18.20;12.87;;;;;;;11.38;100.00;99075.84;7391616;19;20922;-56
2022/05/20 03:49:28;;;;;;;19.47;12.60;;;;;;;11.40;100.00;99061.28;7360121;19;20783;-57
2022/05/20 03:51:59;;;;;;;17.63;12.20;;;;;;;11.42;100.00;99062.16;7392111;19;20388;-58
2022/05/20 03:54:33;;;;;;;19.10;11.70;;;;;;;11.43;100.00;99073.34;7384243;19;20433;-58
2022/05/20 03:57:07;;;;;;;20.50;13.00;;;;;;;11.44;100.00;99080.25;7391576;19;20943;-61
2022/05/20 03:59:37;;;;;;;16.50;12.43;;;;;;;11.45;100.00;99079.38;7357210;19;20977;-58
2022/05/20 04:02:06;;;;;;;21.03;12.07;;;;;;;11.46;100.00;99079.41;7392418;19;20396;-56
2022/05/20 04:04:38;;;;;;;25.30;12.70;;;;;;;11.45;100.00;99062.16;7385347;19;20429;-61
2022/05/20 04:07:10;;;;;;;20.03;11.67;;;;;;;11.45;100.00;99066.47;7390503;19;20432;-56
2022/05/20 04:09:40;;;;;;;17.07;11.00;;;;;;;11.41;100.00;99068.16;7387807;19;20409;-59
2022/05/20 04:12:16;;;;;;;15.97;10.53;;;;;;;11.36;100.00;99064.66;7392748;19;20378;-60
2022/05/20 04:14:46;;;;;;;18.73;11.53;;;;;;;11.38;100.00;99070.69;7391201;19;20415;-58
2022/05/20 04:17:15;;;;;;;16.27;10.27;;;;;;;11.44;100.00;99069.91;7399855;19;20392;-61
2022/05/20 04:19:44;;;;;;;17.20;9.10;;;;;;;11.43;100.00;99061.28;7393691;19;20414;-59
2022/05/20 04:22:15;;;;;;;13.23;7.60;;;;;;;11.45;100.00;99067.31;7399601;19;20459;-58
2022/05/20 04:24:45;;;;;;;14.33;8.50;;;;;;;11.38;100.00;99064.69;7392062;19;20421;-60
2022/05/20 04:27:17;;;;;;;11.90;7.20;;;;;;;11.37;100.00;99078.44;7400036;19;20389;-58
2022/05/20 04:29:47;;;;;;;9.47;6.60;;;;;;;11.40;100.00;99079.34;7391311;19;20416;-58
2022/05/20 04:32:17;;;;;;;14.80;7.83;;;;;;;11.40;100.00;99069.03;7399508;19;20394;-60
2022/05/20 04:34:46;;;;;;;11.30;7.50;;;;;;;11.38;100.00;99081.03;7390652;19;20442;-61
2022/05/20 04:37:16;;;;;;;12.60;7.10;;;;;;;11.34;100.00;99087.88;7399496;19;20392;-59
2022/05/20 04:39:45;;;;;;;14.13;6.57;;;;;;;11.42;100.00;99087.09;7395087;19;20416;-58
2022/05/20 04:47:42;;;;;;;14.80;7.37;;;;;;;11.51;100.00;99099.25;7398964;19;20466;-61
2022/05/20 04:50:12;;;;;;;14.40;8.37;;;;;;;11.54;100.00;99112.22;7392879;19;20422;-59
2022/05/20 04:52:41;;;;;;;12.03;7.13;;;;;;;11.60;100.00;99112.28;7398881;19;20768;-61
2022/05/20 04:55:09;;;;;;;11.27;7.50;;;;;;;11.58;100.00;99104.50;7388129;19;20455;-57
2022/05/20 04:57:47;;;;;;;11.50;7.73;;;;;;;11.65;100.00;99125.25;7398447;19;20390;-61
2022/05/20 05:00:18;;;;;;;15.47;7.63;;;;;;;11.55;100.00;99124.25;7381269;19;20948;-58
2022/05/20 05:02:48;;;;;;;12.30;7.70;;;;;;;11.61;100.00;99120.06;7398500;19;20394;-60
2022/05/20 05:05:20;;;;;;;14.77;8.33;;;;;;;11.66;100.00;99117.50;7367077;19;20964;-59
2022/05/20 05:07:51;;;;;;;14.80;8.50;;;;;;;11.73;100.00;99115.84;7398120;19;20387;-58
2022/05/20 05:10:24;;;;;;;19.63;8.80;;;;;;;11.77;100.00;99122.78;7369616;19;20427;-61
2022/05/20 05:12:56;;;;;;;12.80;7.60;;;;;;;11.74;100.00;99104.66;7398099;19;20397;-57
2022/05/20 05:15:26;;;;;;;13.97;7.03;;;;;;;11.78;100.00;99090.94;7373869;19;20452;-60
2022/05/20 05:20:38;;;;;;;19.03;7.43;;;;;;;11.89;100.00;99122.91;7372463;19;20494;-61
2022/05/20 05:23:07;;;;;;;14.60;7.07;;;;;;;11.92;100.00;99121.22;7402248;19;20394;-62
2022/05/20 05:25:38;;;;;;;11.60;7.30;;;;;;;11.99;100.00;99116.13;7379900;19;20416;-59
2022/05/20 05:28:10;;;;;;;16.00;7.60;;;;;;;12.02;100.00;99110.13;7397972;19;20451;-59
2022/05/20 05:30:42;;;;;;;17.73;7.17;;;;;;;12.08;100.00;99114.50;7367837;19;20415;-57
2022/05/20 05:33:12;;;;;;;10.27;6.40;;;;;;;11.95;100.00;99124.69;7397848;19;20456;-58
2022/05/20 05:35:41;;;;;;;8.47;5.33;;;;;;;11.94;100.00;99094.53;7366718;19;20435;-55
2022/05/20 05:38:11;;;;;;;12.13;6.63;;;;;;;11.89;100.00;99091.03;7397566;19;20390;-62
2022/05/20 05:40:42;;;;;;;14.00;5.77;;;;;;;11.85;100.00;99089.28;7368029;19;20399;-59
2022/05/20 05:43:14;;;;;;;11.37;5.30;;;;;;;11.91;100.00;99104.84;7397256;19;20391;-60
2022/05/20 05:45:44;;;;;;;9.80;4.53;;;;;;;11.96;100.00;99086.78;7366122;19;20437;-59
2022/05/20 05:48:16;;;;;;;7.57;4.90;;;;;;;12.02;100.00;99074.78;7396717;19;20401;-58
2022/05/20 05:50:47;;;;;;;13.73;5.17;;;;;;;12.07;100.00;99061.06;7383749;19;20423;-59
2022/05/20 05:53:18;;;;;;;8.43;4.20;;;;;;;12.04;100.00;99059.31;7397171;19;20391;-60
2022/05/20 05:55:49;;;;;;;12.07;4.40;;;;;;;12.12;100.00;99049.06;7392765;19;20446;-56
2022/05/20 05:58:21;;;;;;;7.57;4.27;;;;;;;12.01;100.00;99046.34;7401130;19;20918;-59
2022/05/20 06:00:51;;;;;;;13.43;4.97;;;;;;;11.97;100.00;99029.97;7367637;19;20423;-62
2022/05/20 06:03:20;;;;;;;23.10;5.03;;;;;;;12.07;100.00;99036.09;7396556;19;20383;-61
2022/05/20 06:05:50;;;;;;;10.73;5.20;;;;;;;12.12;100.00;99142.13;7387099;19;20438;-62
2022/05/20 06:08:20;;;;;;;9.00;4.90;;;;;;;12.08;100.00;99088.66;7397094;19;20392;-61
2022/05/20 06:10:50;;;;;;;11.70;4.80;;;;;;;12.09;100.00;99054.19;7386392;19;20430;-56
2022/05/20 06:13:26;;;;;;;17.60;6.10;;;;;;;12.02;100.00;99036.00;7396153;19;20398;-59
2022/05/20 06:15:57;;;;;;;17.07;5.33;;;;;;;12.07;100.00;99014.53;7394863;19;20438;-61
2022/05/20 06:18:28;;;;;;;13.70;5.10;;;;;;;12.14;100.00;99000.81;7396036;19;20385;-59
2022/05/20 06:20:58;;;;;;;8.30;4.40;;;;;;;12.19;100.00;99001.72;7395693;19;20407;-59
2022/05/20 06:23:29;;;;;;;13.47;4.27;;;;;;;12.25;100.00;98982.81;7395865;19;20389;-61
2022/05/20 06:26:00;;;;;;;10.47;4.10;;;;;;;12.23;100.00;98975.03;7393448;19;20420;-61
2022/05/20 06:28:48;;;;;;;10.47;3.80;;;;;;;12.20;100.00;98985.34;7360434;19;20403;-60
2022/05/20 06:31:18;;;;;;;6.37;3.43;;;;;;;12.05;100.00;98985.25;7395913;19;20420;-62
2022/05/20 06:33:47;;;;;;;10.57;3.87;;;;;;;12.04;100.00;98993.84;7371001;19;20408;-61
2022/05/20 06:41:41;;;;;;;6.10;2.80;;;;;;;12.33;100.00;99006.09;7394364;19;20383;-61
2022/05/20 06:44:13;;;;;;;9.03;4.53;;;;;;;12.52;100.00;99089.88;7366584;19;20423;-60
2022/05/20 06:46:42;;;;;;;10.33;3.27;;;;;;;12.46;100.00;99059.63;7393876;19;20425;-58
2022/05/20 06:49:12;;;;;;;7.50;3.20;;;;;;;12.44;100.00;99053.59;7351938;19;20416;-57
2022/05/20 06:51:41;;;;;;;16.80;7.77;;;;;;;12.48;100.00;99032.09;7394736;19;20755;-59
2022/05/20 06:54:12;;;;;;;7.10;3.00;;;;;;;12.47;100.00;99032.94;7380659;19;20421;-60
2022/05/20 06:56:44;;;;;;;13.10;3.73;;;;;;;12.53;100.00;99017.47;7393305;19;20413;-57
2022/05/20 06:59:17;;;;;;;15.17;5.97;;;;;;;12.71;100.00;99002.88;7380392;19;20412;-61
2022/05/20 07:01:46;;;;;;;12.40;6.50;;;;;;;12.93;100.00;99003.00;7396695;19;20418;-60
2022/05/20 07:04:36;;;;;;;6.40;3.23;;;;;;;12.55;100.00;99022.63;7389945;19;20426;-61
2022/05/20 07:07:06;;;;;;;7.97;3.43;;;;;;;12.46;100.00;99038.94;7392399;19;20918;-61
2022/05/20 07:09:36;;;;;;;8.57;3.30;;;;;;;12.62;100.00;99024.38;7351511;19;20412;-58
2022/05/20 07:12:07;;;;;;;7.80;3.00;;;;;;;12.75;100.00;99014.97;7394292;19;20405;-60
2022/05/20 07:14:39;;;;;;;7.40;3.20;;;;;;;12.74;100.00;99025.31;7384820;19;20420;-57
2022/05/20 07:17:08;;;;;;;9.97;3.10;;;;;;;12.64;100.00;99034.75;7392192;19;20448;-58
2022/05/20 07:19:41;;;;;;;9.57;3.20;;;;;;;12.62;100.00;99065.78;7388222;19;20444;-57
2022/05/20 07:22:11;;;;;;;23.33;7.70;;;;;;;12.55;100.00;99084.72;7397395;19;20412;-59
2022/05/20 07:24:43;;;;;;;9.87;3.33;;;;;;;12.55;100.00;99097.66;7388235;19;20523;-59
2022/05/20 07:27:12;;;;;;;11.87;3.70;;;;;;;12.52;100.00;99120.91;7396215;19;20399;-57
2022/05/20 07:29:44;;;;;;;11.00;4.10;;;;;;;12.76;100.00;99107.28;7358824;19;20439;-60
2022/05/20 07:32:14;;;;;;;14.17;3.90;;;;;;;12.85;100.00;99111.66;7397258;19;20395;-59
2022/05/20 07:34:44;;;;;;;14.53;5.20;;;;;;;12.86;100.00;99120.28;7369294;19;20470;-56
2022/05/20 07:37:15;;;;;;;10.97;2.83;;;;;;;12.76;100.00;99135.75;7396505;19;20385;-59
2022/05/20 07:39:44;;;;;;;9.60;2.40;;;;;;;12.68;100.00;99166.72;7357232;19;20396;-59
2022/05/20 07:42:14;;;;;;;7.53;2.73;;;;;;;12.67;100.00;99182.28;7391973;19;20409;-60
2022/05/20 07:44:46;;;;;;;8.57;3.40;;;;;;;12.77;100.00;99183.19;7367560;19;20428;-57
2022/05/20 07:47:15;;;;;;;22.53;12.23;;;;;;;13.04;100.00;99167.00;7391259;19;20393;-57
2022/05/20 07:49:45;;;;;;;13.47;6.00;;;;;;;13.10;100.00;99174.81;7370253;19;20523;-58
2022/05/20 07:53:19;;;;;;;29.17;8.97;;;;;;;13.24;100.00;99174.03;7399743;19;20412;-61
2022/05/20 07:55:08;;;;;;;20.70;7.50;;;;;;;12.98;100.00;99216.16;7377386;19;20434;-59
2022/05/20 07:57:38;;;;;;;6.77;2.10;;;;;;;13.13;100.00;99198.97;7400674;19;20387;-62
2022/05/20 08:00:14;;;;;;;22.50;8.93;;;;;;;13.08;100.00;99212.75;7364325;19;21060;-58
2022/05/20 08:02:45;;;;;;;8.93;3.60;;;;;;;13.22;100.00;99196.44;7400327;19;20379;-61
2022/05/20 08:05:14;;;;;;;9.23;2.20;;;;;;;13.24;100.00;99205.94;7369435;19;21024;-56
2022/05/20 08:07:45;;;;;;;11.27;5.37;;;;;;;13.46;100.00;99220.78;7399859;19;20382;-56
2022/05/20 08:10:20;;;;;;;8.50;3.20;;;;;;;13.48;100.00;99232.00;7394494;19;20441;-57
2022/05/20 08:12:50;;;;;;;9.10;3.60;;;;;;;13.29;100.00;99296.66;7400098;19;20397;-59
2022/05/20 08:15:22;;;;;;;7.30;3.47;;;;;;;13.16;100.00;99316.38;7390486;19;20453;-58
2022/05/20 08:17:52;;;;;;;8.00;2.90;;;;;;;13.27;100.00;99308.69;7400040;19;20383;-62
2022/05/20 08:20:30;;;;;;;6.73;2.93;;;;;;;13.29;100.00;99338.09;7364614;19;20423;-59
2022/05/20 08:23:00;;;;;;;9.53;2.30;;;;;;;13.48;100.00;99364.13;7400081;19;20400;-55
2022/05/20 08:25:31;;;;;;;15.73;5.53;;;;;;;13.79;100.00;99342.78;7389974;19;20414;-59
2022/05/20 08:28:00;;;;;;;35.97;10.87;;;;;;;14.14;100.00;99425.94;7399706;19;20399;-56
2022/05/20 08:30:33;;;;;;;36.93;11.77;;;;;;;14.49;100.00;99511.75;7392917;19;20421;-60
2022/05/20 08:33:02;;;;;;;13.43;6.77;;;;;;;14.79;100.00;99546.56;7399457;19;20454;-60
2022/05/20 08:35:32;;;;;;;7.90;2.27;;;;;;;14.08;100.00;99653.25;7395449;19;20411;-59
2022/05/20 08:38:05;;;;;;;9.90;3.50;;;;;;;14.00;100.00;99711.09;7400662;19;20400;-60
2022/05/20 08:40:40;;;;;;;6.67;2.60;;;;;;;14.41;100.00;99688.16;7391795;19;20402;-60
2022/05/20 08:43:09;;;;;;;14.10;6.30;;;;;;;14.75;100.00;99620.06;7395502;19;20411;-58
2022/05/20 08:45:42;;;;;;;7.27;2.57;;;;;;;14.61;100.00;99662.34;7370818;19;20448;-58
2022/05/20 08:48:13;;;;;;;6.27;2.30;;;;;;;14.41;100.00;99701.13;7403291;19;20926;-59
2022/05/20 08:50:46;;;;;;;9.80;2.40;;;;;;;14.31;100.00;99741.69;7365153;19;20415;-61
2022/05/20 08:53:20;;;;;;;13.90;3.80;;;;;;;14.38;100.00;99769.44;7397780;19;20731;-60
2022/05/20 08:55:50;;;;;;;8.97;3.37;;;;;;;14.39;100.00;99778.06;7361695;19;21004;-61
2022/05/20 08:58:21;;;;;;;9.73;2.67;;;;;;;14.91;100.00;99746.56;7397312;19;20390;-57
2022/05/20 09:00:53;;;;;;;9.10;3.37;;;;;;;15.16;100.00;99745.88;7369447;19;20952;-59
2022/05/20 09:03:22;;;;;;;8.60;2.60;;;;;;;15.20;100.00;99771.91;7398667;19;20625;-57
2022/05/20 09:05:52;;;;;;;9.07;3.30;;;;;;;15.17;100.00;99761.47;7353069;19;20765;-58
2022/05/20 09:08:25;;;;;;;9.50;2.90;;;;;;;14.47;100.00;99793.72;7397281;19;20383;-55
2022/05/20 09:10:56;;;;;;;8.20;3.50;;;;;;;14.83;100.00;99782.00;7371319;19;20423;-54
2022/05/20 09:15:43;;;;;;;5.90;2.80;;;;;;;14.88;100.00;99790.72;7397905;19;20471;-58
2022/05/20 09:16:19;;;;;;;7.03;3.20;;;;;;;14.75;100.00;99845.94;7360496;19;20400;-58
2022/05/20 09:18:49;;;;;;;11.70;3.80;;;;;;;15.04;100.00;99838.44;7397132;19;20384;-61
2022/05/20 09:21:32;;;;;;;9.90;3.10;;;;;;;15.11;100.00;99849.75;7359895;19;20403;-58
2022/05/20 09:24:05;;;;;;;6.33;2.90;;;;;;;15.55;100.00;99824.97;7396852;19;20389;-55
2022/05/20 09:26:38;;;;;;;8.70;3.90;;;;;;;15.65;100.00;99849.31;7360414;19;20788;-59
2022/05/20 09:29:10;;;;;;;8.30;3.47;;;;;;;15.97;100.00;99858.16;7397013;19;20388;-57
2022/05/20 09:32:04;;;;;;;14.80;4.23;;;;;;;15.44;100.00;99889.84;7365587;19;20423;-56
2022/05/20 09:34:38;;;;;;;9.70;3.50;;;;;;;15.55;100.00;99868.28;7396969;19;20380;-55
2022/05/20 09:37:18;;;;;;;32.77;9.77;;;;;;;15.19;100.00;99894.88;7363473;19;20489;-56
2022/05/20 09:39:50;;;;;;;17.90;4.87;;;;;;;15.14;100.00;99906.06;7397393;19;20657;-58
2022/05/20 09:42:22;;;;;;;11.00;4.60;;;;;;;15.64;100.00;99891.75;7370973;19;20865;-54
2022/05/20 09:44:54;;;;;;;9.60;3.07;;;;;;;16.02;100.00;99849.53;7396310;19;20403;-54
2022/05/20 09:47:33;;;;;;;12.40;3.50;;;;;;;16.41;100.00;99805.44;7359159;19;20425;-57
2022/05/20 09:50:06;;;;;;;15.27;4.63;;;;;;;16.28;100.00;99898.22;7399817;19;20423;-59
2022/05/20 09:52:51;;;;;;;32.03;10.27;;;;;;;16.00;100.00;99908.47;7369849;19;20435;-58
2022/05/20 09:55:29;;;;;;;8.37;3.80;;;;;;;15.97;100.00;99890.25;7395502;19;20428;-57
2022/05/20 09:58:12;;;;;;;9.90;3.40;;;;;;;16.05;100.00;99867.75;7396751;19;20454;-58
2022/05/20 10:00:45;;;;;;;24.57;7.67;;;;;;;15.91;100.00;99869.38;7371168;19;20478;-62
2022/05/20 10:03:27;;;;;;;6.10;3.00;;;;;;;16.14;100.00;99843.50;7396277;19;20391;-57
2022/05/20 10:06:00;;;;;;;9.70;3.87;;;;;;;16.60;100.00;99840.19;7362194;19;21050;-59
2022/05/20 10:08:34;;;;;;;11.03;3.40;;;;;;;16.74;100.00;99839.34;7397777;19;20401;-53
2022/05/20 10:11:09;;;;;;;5.00;2.63;;;;;;;16.72;100.00;99885.38;7389277;19;21192;-58
2022/05/20 10:13:44;;;;;;;10.80;3.47;;;;;;;16.67;100.00;99916.59;7395255;19;20402;-58
2022/05/20 10:16:26;;;;;;;15.00;4.70;;;;;;;16.84;100.00;99949.63;7389062;19;20414;-60
2022/05/20 10:19:03;;;;;;;9.50;2.50;;;;;;;16.87;100.00;99979.16;7394938;19;20820;-57
2022/05/20 10:21:46;;;;;;;6.33;2.37;;;;;;;16.80;100.00;100037.31;7386138;19;20404;-58
2022/05/20 10:24:30;;;;;;;17.13;5.43;;;;;;;16.10;100.00;100042.09;7395140;19;20382;-55
2022/05/20 10:27:03;;;;;;;8.03;3.37;;;;;;;16.38;100.00;100025.81;7385694;19;20437;-59
2022/05/20 10:32:38;;;;;;;7.60;2.73;;;;;;;16.90;100.00;100021.72;7387257;19;20412;-58
2022/05/20 10:35:13;;;;;;;13.97;5.83;;;;;;;17.06;100.00;100000.09;7396784;19;20425;-58
2022/05/20 10:38:09;;;;;;;18.73;10.30;;;;;;;17.51;100.00;100002.81;7363875;19;20413;-59
2022/05/20 10:40:49;;;;;;;6.80;3.27;;;;;;;17.58;100.00;100001.06;7388141;19;20418;-59
2022/05/20 10:43:32;;;;;;;8.53;4.00;;;;;;;17.54;100.00;99983.69;7394440;19;20393;-57
2022/05/20 10:49:08;;;;;;;5.20;2.77;;;;;;;17.75;100.00;99954.09;7393343;19;20395;-56
2022/05/20 10:52:09;;;;;;;10.03;3.43;;;;;;;17.75;100.00;99972.38;7389469;19;20939;-58
2022/05/20 10:54:54;;;;;;;13.43;4.13;;;;;;;17.58;100.00;99977.59;7393947;19;20389;-56
2022/05/20 10:57:36;;;;;;;10.83;3.90;;;;;;;17.28;100.00;99987.16;7386627;19;20424;-57
2022/05/20 11:00:09;;;;;;;5.43;3.50;;;;;;;17.37;100.00;99958.47;7394487;19;20461;-58
2022/05/20 11:02:59;;;;;;;10.43;4.20;;;;;;;17.82;100.00;99936.72;7388217;19;20417;-57
2022/05/20 11:05:41;;;;;;;9.43;3.73;;;;;;;17.91;100.00;99926.28;7385912;19;20412;-59
2022/05/20 11:08:22;;;;;;;9.90;4.27;;;;;;;17.76;100.00;99962.81;7393245;19;20387;-57
2022/05/20 11:11:11;;;;;;;10.00;3.90;;;;;;;17.60;100.00;99973.25;7386942;19;20519;-55
2022/05/20 11:14:03;;;;;;;7.00;3.43;;;;;;;18.29;100.00;99947.09;7392797;19;20471;-57
2022/05/20 11:16:57;;;;;;;8.20;3.40;;;;;;;18.65;100.00;99962.66;7385743;19;20418;-57
2022/05/20 11:19:38;;;;;;;8.27;3.30;;;;;;;18.32;100.00;99928.81;7393456;19;20394;-58
2022/05/20 11:22:35;;;;;;;8.57;3.30;;;;;;;18.14;100.00;99935.81;7372518;19;20937;-60
2022/05/20 11:25:24;;;;;;;9.23;3.70;;;;;;;17.68;100.00;99981.94;7392809;19;20399;-58
2022/05/20 11:28:09;;;;;;;8.70;4.63;;;;;;;17.73;100.00;99983.69;7392556;19;20509;-59
2022/05/20 11:30:52;;;;;;;31.73;10.43;;;;;;;18.09;100.00;99976.72;7373305;19;20403;-54
2022/05/20 11:33:41;;;;;;;7.87;3.13;;;;;;;18.53;100.00;100002.72;7396174;19;20765;-60
2022/05/20 11:36:19;;;;;;;40.33;12.50;;;;;;;18.30;100.00;100035.00;7385261;19;20749;-59
2022/05/20 11:39:17;;;;;;;10.57;3.73;;;;;;;18.42;100.00;100008.88;7393154;19;20405;-59
2022/05/20 11:41:53;;;;;;;41.80;13.43;;;;;;;18.49;100.00;99979.25;7368865;19;20433;-61
2022/05/20 11:44:35;;;;;;;6.37;3.00;;;;;;;18.57;100.00;99978.34;7392772;19;20387;-56
2022/05/20 11:47:25;;;;;;;8.20;2.93;;;;;;;18.56;100.00;99934.81;7386855;19;20436;-60
2022/05/20 11:50:06;;;;;;;8.90;3.33;;;;;;;18.45;100.00;99980.13;7395289;19;20403;-57
2022/05/20 11:52:56;;;;;;;11.97;3.43;;;;;;;18.39;100.00;100045.41;7371266;19;20423;-59
2022/05/20 11:55:27;;;;;;;22.10;8.60;;;;;;;18.20;100.00;100126.38;7384548;19;20415;-60
2022/05/20 11:58:04;;;;;;;4.37;1.80;;;;;;;18.49;100.00;100219.53;7392609;19;20399;-58
2022/05/20 12:00:34;;;;;;;5.70;2.60;;;;;;;18.57;100.00;100404.13;7389219;19;20402;-58
2022/05/20 12:03:07;;;;;;;7.40;2.50;;;;;;;18.95;100.00;100470.41;7396561;19;20388;-56
2022/05/20 12:05:40;;;;;;;12.50;3.37;;;;;;;18.85;100.00;100445.97;7384235;19;20455;-56
2022/05/20 12:08:10;;;;;;;7.30;2.80;;;;;;;18.52;100.00;100477.25;7394768;19;21009;-60
2022/05/20 12:10:49;;;;;;;6.37;2.70;;;;;;;18.18;100.00;100496.22;7379821;19;20746;-58
2022/05/20 12:13:24;;;;;;;5.90;2.60;;;;;;;18.43;100.00;100423.22;7396311;19;20407;-58